Forsyth, MT

12:20 AM MDT on August 29, 2015 (GMT -0600)
RAWS | | Change Station
CLOSE
Current Station
Personal Weather Station
Location: Lame Deer, MT
Elevation: 4382 ft
Nearby Weather Stations

Elev 4382 ft 45.65 °N, 106.50 °W | Updated 1 hour ago

Clear
Clear
75.0 °F
Feels Like 75.0 °F
N
12.0
Wind Variable Wind from SSE
Gusts 14.0 mph

Today
High -- | Low -- °F
--% Chance of Precip.
Yesterday
High -- | Low -- °F
Precip. -- in
6:23 AM 7:49 PM
Full, 100% visible
Pressure 29.96 in
Visibility 8.0 miles
Clouds Clear
Dew Point 38.0 °F
Humidity 26%
Rainfall in
Snow Depth Not available.
UV 0 out of 12
Pollen 9.00 out of 12
Air Quality Not available.
Flu Activity Not available.
METAR KSHR 290553Z AUTO 00000KT 8SM CLR 16/08 A3007 RMK AO2 SLP145 T01560078 10311 20144 58005
Pressure 29.96 in
Visibility 8.0 miles
Clouds Clear
Dew Point 38.0 °F
Humidity 26%
Rainfall in
Snow Depth Not available.
UV 0 out of 12
Pollen 9.00 out of 12
Air Quality Not available.
Flu Activity Not available.
METAR KSHR 290553Z AUTO 00000KT 8SM CLR 16/08 A3007 RMK AO2 SLP145 T01560078 10311 20144 58005

10-Day Weather Forecast

×

Almanac

Astronomy

Aug. 29, 2015 Rise Set
Actual Time
Civil Twilight
Nautical Twilight
Astronomical Twilight
Moon
Length of Visible Light
Length of Day
Tomorrow will be .
, % of the Moon is Illuminated

Today's Extremes

State Highs State Lows

Community

WunderPhotos

Upload Photos

1,850,622 photos uploaded!

WunderBlogs® & News

Nearby

Air Quality

  Air Quality AQ Index Pollutant
Not available.

Snow Depth

Station Depth Elevation

Earthquake Activity

City Distance Mag. Time & Date
Minimum magnitude displayed is 2.5.

Coastal Water Temperatures

Place Temperature

Stations

Nearby Weather Stations

Station Location Temp. Windchill Dew Point Humidity Wind Precip. Elev Updated Type